Aviation Digital Data Service (ADDS)

Output produced by METARs form (1841 UTC 27 August 2016)
found at http://www.aviationweather.gov/adds/metars/
 
KEWR 271734Z 2718/2824 15008KT P6SM FEW060 SCT250 
     FM280000 14005KT P6SM FEW250 
     FM280800 VRB04KT P6SM FEW250 
     FM281100 08005KT P6SM FEW250 
     FM281600 10006KT P6SM FEW250 
     FM281800 16008KT P6SM FEW250